Time;durP1;ratioP1;P1;durP2;ratioP2;P2;SDS_P1;SDS_P2;PMS_P1;PMS_P2;Temp;Humidity;BMP_temperature;BMP_pressure;BME280_temperature;BME280_humidity;BME280_pressure;Samples;Min_cycle;Max_cycle;Signal;HPM_P1;HPM_P2
2022/10/28 00:01:05;;;;;;;;;;;13.80;99.90;;;;;;5067038;28;20033;-71
2022/10/28 00:03:31;;;;;;;;;;;13.80;99.90;;;;;;5064042;28;19927;-70
2022/10/28 00:06:01;;;;;;;;;;;13.70;99.90;;;;;;5064717;28;19921;-71
2022/10/28 00:08:27;;;;;;;;;;;13.70;99.90;;;;;;5065524;28;19929;-70
2022/10/28 00:10:59;;;;;;;;;;;13.70;99.90;;;;;;5065308;28;19921;-70
2022/10/28 00:13:25;;;;;;;;;;;13.70;99.90;;;;;;5045789;28;19928;-71
2022/10/28 00:15:50;;;;;;;;;;;13.60;99.90;;;;;;5047022;28;20372;-71
2022/10/28 00:18:20;;;;;;;;;;;13.60;99.90;;;;;;5062065;28;19967;-70
2022/10/28 00:20:46;;;;;;;;;;;13.60;99.90;;;;;;5065708;28;19920;-70
2022/10/28 00:23:12;;;;;;;;;;;13.60;99.90;;;;;;5049133;28;19921;-70
2022/10/28 00:25:37;;;;;;;;;;;13.60;99.90;;;;;;5062209;28;20376;-70
2022/10/28 00:28:03;;;;;;;;;;;13.50;99.90;;;;;;5047733;28;19929;-70
2022/10/28 00:30:28;;;;;;;;;;;13.50;99.90;;;;;;5051750;28;19921;-71
2022/10/28 00:32:54;;;;;;;;;;;13.60;99.90;;;;;;5045018;28;19927;-71
2022/10/28 00:35:22;;;;;;;;;;;13.80;99.90;;;;;;5064887;28;19971;-70
2022/10/28 00:37:51;;;;;;;;;;;13.80;99.90;;;;;;5046234;28;20298;-70
2022/10/28 00:40:17;;;;;;;;;;;13.80;99.90;;;;;;5062923;28;19959;-70
2022/10/28 00:42:42;;;;;;;;;;;13.80;99.90;;;;;;5047045;28;19966;-71
2022/10/28 00:45:08;;;;;;;;;;;13.80;99.90;;;;;;5045927;28;19920;-71
2022/10/28 00:47:53;;;;;;;;;;;13.90;99.90;;;;;;5065043;28;19916;-70
2022/10/28 00:50:38;;;;;;;;;;;13.80;99.90;;;;;;5064362;28;19927;-70
2022/10/28 00:53:05;;;;;;;;;;;13.80;99.90;;;;;;5062953;28;19927;-70
2022/10/28 00:55:31;;;;;;;;;;;13.70;99.90;;;;;;5047239;28;19927;-70
2022/10/28 00:57:57;;;;;;;;;;;13.70;99.90;;;;;;5044359;28;20007;-70
2022/10/28 01:00:23;;;;;;;;;;;13.60;99.90;;;;;;5064728;28;19921;-70
2022/10/28 01:02:49;;;;;;;;;;;13.60;99.90;;;;;;5044946;28;19920;-70
2022/10/28 01:05:20;;;;;;;;;;;13.60;99.90;;;;;;5067065;28;19931;-70
2022/10/28 01:07:45;;;;;;;;;;;13.60;99.90;;;;;;5045600;28;19936;-70
2022/10/28 01:10:12;;;;;;;;;;;13.50;99.90;;;;;;5064232;28;19920;-69
2022/10/28 01:12:54;;;;;;;;;;;13.50;99.90;;;;;;5044872;28;20007;-69
2022/10/28 01:15:38;;;;;;;;;;;13.50;99.90;;;;;;5047167;28;19920;-70
2022/10/28 01:18:04;;;;;;;;;;;13.50;99.90;;;;;;5062909;28;19920;-70
2022/10/28 01:20:42;;;;;;;;;;;13.50;99.90;;;;;;5049755;28;20429;-70
2022/10/28 01:23:15;;;;;;;;;;;13.50;99.90;;;;;;5045222;28;19927;-70
2022/10/28 01:25:46;;;;;;;;;;;13.40;99.90;;;;;;5045277;28;20365;-70
2022/10/28 01:28:21;;;;;;;;;;;13.50;99.90;;;;;;5045417;28;19920;-70
2022/10/28 01:31:06;;;;;;;;;;;13.50;99.90;;;;;;5049574;28;19999;-70
2022/10/28 01:33:35;;;;;;;;;;;13.40;99.90;;;;;;5051274;28;19973;-70
2022/10/28 01:36:14;;;;;;;;;;;13.40;99.90;;;;;;5043886;28;19921;-70
2022/10/28 01:38:53;;;;;;;;;;;13.30;99.90;;;;;;5045400;28;19920;-70
2022/10/28 01:41:18;;;;;;;;;;;13.20;99.90;;;;;;5061054;28;19927;-70
2022/10/28 01:43:56;;;;;;;;;;;13.20;99.90;;;;;;5063639;28;19921;-71
2022/10/28 01:46:42;;;;;;;;;;;13.20;99.90;;;;;;5061636;28;20289;-70
2022/10/28 01:49:38;;;;;;;;;;;13.20;99.90;;;;;;5045105;28;19966;-70
2022/10/28 01:52:05;;;;;;;;;;;13.20;99.90;;;;;;5046604;28;19920;-70
2022/10/28 01:54:35;;;;;;;;;;;13.10;99.90;;;;;;5062440;28;20271;-70
2022/10/28 01:57:02;;;;;;;;;;;13.10;99.90;;;;;;5062260;28;19999;-71
2022/10/28 01:59:29;;;;;;;;;;;13.20;99.90;;;;;;5045914;28;19978;-70
2022/10/28 02:01:54;;;;;;;;;;;13.20;99.90;;;;;;5043633;28;20369;-71
2022/10/28 02:04:20;;;;;;;;;;;13.20;99.90;;;;;;5046090;28;19970;-70
2022/10/28 02:06:49;;;;;;;;;;;13.20;99.90;;;;;;5064220;28;20406;-70
2022/10/28 02:09:17;;;;;;;;;;;13.20;99.90;;;;;;5046587;28;19920;-70
2022/10/28 02:11:52;;;;;;;;;;;13.30;99.90;;;;;;5060599;28;19928;-71
2022/10/28 02:14:24;;;;;;;;;;;13.20;99.90;;;;;;5060729;28;20351;-71
2022/10/28 02:16:56;;;;;;;;;;;13.30;99.90;;;;;;5061462;28;19928;-70
2022/10/28 02:19:40;;;;;;;;;;;13.30;99.90;;;;;;5062561;28;20303;-70
2022/10/28 02:22:11;;;;;;;;;;;13.30;99.90;;;;;;5048822;28;20440;-70
2022/10/28 02:24:56;;;;;;;;;;;13.40;99.90;;;;;;5067221;28;19928;-70
2022/10/28 02:27:43;;;;;;;;;;;13.30;99.90;;;;;;5064668;28;19921;-70
2022/10/28 02:30:18;;;;;;;;;;;13.40;99.90;;;;;;5042708;28;19920;-70
2022/10/28 02:32:46;;;;;;;;;;;13.40;99.90;;;;;;5036587;28;19929;-69
2022/10/28 02:35:30;;;;;;;;;;;13.40;99.90;;;;;;5041262;28;19921;-69
2022/10/28 02:38:06;;;;;;;;;;;13.40;99.90;;;;;;5042173;28;20399;-70
2022/10/28 02:40:36;;;;;;;;;;;13.50;99.90;;;;;;5041256;28;20312;-70
2022/10/28 02:43:04;;;;;;;;;;;13.50;99.90;;;;;;5040323;28;19931;-70
2022/10/28 02:45:34;;;;;;;;;;;13.50;99.90;;;;;;5041185;28;20012;-70
2022/10/28 02:48:03;;;;;;;;;;;13.50;99.90;;;;;;5040037;28;20011;-69
2022/10/28 02:50:34;;;;;;;;;;;13.50;99.90;;;;;;5042566;28;20007;-70
2022/10/28 02:53:01;;;;;;;;;;;13.50;99.90;;;;;;5038139;28;19929;-69
2022/10/28 02:55:31;;;;;;;;;;;13.50;99.90;;;;;;5042376;28;19921;-69
2022/10/28 02:57:56;;;;;;;;;;;13.40;99.90;;;;;;5041996;28;19999;-69
2022/10/28 03:00:23;;;;;;;;;;;13.50;99.90;;;;;;5039719;28;20024;-69
2022/10/28 03:02:49;;;;;;;;;;;13.40;99.90;;;;;;5040807;28;19974;-69
2022/10/28 03:05:15;;;;;;;;;;;13.30;99.90;;;;;;5039799;28;19940;-69
2022/10/28 03:07:40;;;;;;;;;;;13.30;99.90;;;;;;5045456;28;19948;-69
2022/10/28 03:10:06;;;;;;;;;;;13.30;99.90;;;;;;5040959;28;19928;-69
2022/10/28 03:12:31;;;;;;;;;;;13.30;99.90;;;;;;5041914;28;19927;-70
2022/10/28 03:14:57;;;;;;;;;;;13.40;99.90;;;;;;5038682;28;19928;-70
2022/10/28 03:17:22;;;;;;;;;;;13.40;99.90;;;;;;5041705;28;19921;-70
2022/10/28 03:19:48;;;;;;;;;;;13.40;99.90;;;;;;5041235;28;19927;-71
2022/10/28 03:22:14;;;;;;;;;;;13.50;99.90;;;;;;5038865;28;20368;-71
2022/10/28 03:24:39;;;;;;;;;;;13.40;99.90;;;;;;5042862;28;19974;-71
2022/10/28 03:27:14;;;;;;;;;;;13.40;99.90;;;;;;5040066;28;20292;-70
2022/10/28 03:29:39;;;;;;;;;;;13.40;99.90;;;;;;5043096;28;19969;-69
2022/10/28 03:32:05;;;;;;;;;;;13.40;99.90;;;;;;5049517;28;20398;-69
2022/10/28 03:34:30;;;;;;;;;;;13.40;99.90;;;;;;5066752;28;19924;-70
2022/10/28 03:36:56;;;;;;;;;;;13.40;99.90;;;;;;5062449;28;19920;-69
2022/10/28 03:39:21;;;;;;;;;;;13.40;99.90;;;;;;5047337;28;20057;-70
2022/10/28 03:41:47;;;;;;;;;;;13.40;99.90;;;;;;5044096;28;19920;-70
2022/10/28 03:44:13;;;;;;;;;;;13.40;99.90;;;;;;5060351;28;20379;-70
2022/10/28 03:46:38;;;;;;;;;;;13.40;99.90;;;;;;5062276;28;19920;-70
2022/10/28 03:49:04;;;;;;;;;;;13.60;99.90;;;;;;5045846;28;20312;-70
2022/10/28 03:51:29;;;;;;;;;;;13.40;99.90;;;;;;5058830;28;19921;-70
2022/10/28 03:53:55;;;;;;;;;;;13.30;99.90;;;;;;5063257;28;19924;-70
2022/10/28 03:56:20;;;;;;;;;;;13.30;99.90;;;;;;5042322;28;19920;-69
2022/10/28 03:58:47;;;;;;;;;;;13.30;99.90;;;;;;5063665;28;20359;-71
2022/10/28 04:01:12;;;;;;;;;;;13.30;99.90;;;;;;5043334;28;19920;-70
2022/10/28 04:03:38;;;;;;;;;;;13.30;99.90;;;;;;5060768;28;19920;-70
2022/10/28 04:06:04;;;;;;;;;;;13.30;99.90;;;;;;5059784;28;19975;-70
2022/10/28 04:08:29;;;;;;;;;;;13.30;99.90;;;;;;5044892;28;20406;-70
2022/10/28 04:10:55;;;;;;;;;;;13.20;99.90;;;;;;5043453;28;19929;-69
2022/10/28 04:13:20;;;;;;;;;;;13.30;99.90;;;;;;5045950;28;20007;-70
2022/10/28 04:15:48;;;;;;;;;;;13.20;99.90;;;;;;5046713;28;20422;-68
2022/10/28 04:18:14;;;;;;;;;;;13.20;99.90;;;;;;5063479;28;20283;-70
2022/10/28 04:20:39;;;;;;;;;;;13.20;99.90;;;;;;5046351;28;20383;-70
2022/10/28 04:23:13;;;;;;;;;;;13.20;99.90;;;;;;5046839;28;20233;-72
2022/10/28 04:25:38;;;;;;;;;;;13.10;99.90;;;;;;5045593;28;19925;-70
2022/10/28 04:28:04;;;;;;;;;;;13.10;99.90;;;;;;5066276;28;19921;-70
2022/10/28 04:30:29;;;;;;;;;;;13.00;99.90;;;;;;5047424;28;20069;-70
2022/10/28 04:32:58;;;;;;;;;;;13.10;99.90;;;;;;5062174;28;19956;-70
2022/10/28 04:35:24;;;;;;;;;;;13.00;99.90;;;;;;5048515;28;19936;-69
2022/10/28 04:37:49;;;;;;;;;;;13.10;99.90;;;;;;5043355;28;20007;-67
2022/10/28 04:40:15;;;;;;;;;;;13.00;99.90;;;;;;5063138;28;19920;-67
2022/10/28 04:42:40;;;;;;;;;;;13.10;99.90;;;;;;5047555;28;19963;-67
2022/10/28 04:45:07;;;;;;;;;;;13.10;99.90;;;;;;5062594;28;20003;-67
2022/10/28 04:47:32;;;;;;;;;;;13.10;99.90;;;;;;5061920;28;20018;-67
2022/10/28 04:49:58;;;;;;;;;;;13.10;99.90;;;;;;5044044;28;20416;-67
2022/10/28 04:52:23;;;;;;;;;;;13.10;99.90;;;;;;5047905;28;20474;-67
2022/10/28 04:54:49;;;;;;;;;;;13.10;99.90;;;;;;5065388;28;19921;-69
2022/10/28 04:57:14;;;;;;;;;;;13.10;99.90;;;;;;5044368;28;19921;-69
2022/10/28 04:59:40;;;;;;;;;;;13.10;99.90;;;;;;5046325;28;20280;-67
2022/10/28 05:02:05;;;;;;;;;;;13.20;99.90;;;;;;5064316;28;19927;-69
2022/10/28 05:04:31;;;;;;;;;;;13.50;99.90;;;;;;5064563;28;19920;-68
2022/10/28 05:06:56;;;;;;;;;;;13.10;99.90;;;;;;5062525;28;19920;-69
2022/10/28 05:09:22;;;;;;;;;;;13.10;99.90;;;;;;5044737;28;20325;-69
2022/10/28 05:11:47;;;;;;;;;;;13.10;99.90;;;;;;5048130;28;20023;-67
2022/10/28 05:14:13;;;;;;;;;;;13.10;99.90;;;;;;5043286;28;19920;-66
2022/10/28 05:16:38;;;;;;;;;;;13.20;99.90;;;;;;5047294;28;19975;-68
2022/10/28 05:19:04;;;;;;;;;;;13.20;99.90;;;;;;5064789;28;20368;-69
2022/10/28 05:21:29;;;;;;;;;;;13.20;99.90;;;;;;5058237;28;19921;-69
2022/10/28 05:23:55;;;;;;;;;;;13.10;99.90;;;;;;5046171;28;19954;-67
2022/10/28 05:26:23;;;;;;;;;;;13.20;99.90;;;;;;5064052;28;20365;-69
2022/10/28 05:28:49;;;;;;;;;;;13.10;99.90;;;;;;5064027;28;19916;-68
2022/10/28 05:31:15;;;;;;;;;;;13.20;99.90;;;;;;5064270;28;19920;-67
2022/10/28 05:33:40;;;;;;;;;;;13.10;99.90;;;;;;5053251;28;20295;-70
2022/10/28 05:36:08;;;;;;;;;;;13.10;99.90;;;;;;5046337;28;19921;-70
2022/10/28 05:38:34;;;;;;;;;;;13.10;99.90;;;;;;5062091;28;19951;-70
2022/10/28 05:40:59;;;;;;;;;;;13.10;99.90;;;;;;5064715;28;19921;-68
2022/10/28 05:43:25;;;;;;;;;;;13.20;99.90;;;;;;5061046;28;19932;-69
2022/10/28 05:45:54;;;;;;;;;;;13.10;99.90;;;;;;5044956;28;20011;-69
2022/10/28 05:48:20;;;;;;;;;;;13.20;99.90;;;;;;5060942;28;19927;-74
2022/10/28 05:50:45;;;;;;;;;;;13.10;99.90;;;;;;5061090;28;19924;-72
2022/10/28 05:53:11;;;;;;;;;;;13.10;99.90;;;;;;5045836;28;19928;-70
2022/10/28 05:55:37;;;;;;;;;;;13.10;99.90;;;;;;5058634;28;20531;-70
2022/10/28 05:58:02;;;;;;;;;;;13.10;99.90;;;;;;5042064;28;19929;-71
2022/10/28 06:00:37;;;;;;;;;;;13.10;99.90;;;;;;5046019;28;19928;-70
2022/10/28 06:03:02;;;;;;;;;;;13.10;99.90;;;;;;5061619;28;19926;-71
2022/10/28 06:05:34;;;;;;;;;;;13.10;99.90;;;;;;5058882;28;19921;-71
2022/10/28 06:07:59;;;;;;;;;;;13.00;99.90;;;;;;5045497;28;19936;-71
2022/10/28 06:10:25;;;;;;;;;;;13.60;99.90;;;;;;5056926;28;19924;-71
2022/10/28 06:12:50;;;;;;;;;;;13.00;99.90;;;;;;5065219;28;19921;-70
2022/10/28 06:15:19;;;;;;;;;;;13.00;99.90;;;;;;5063214;28;19923;-72
2022/10/28 06:17:46;;;;;;;;;;;13.00;99.90;;;;;;5062784;28;20329;-71
2022/10/28 06:20:12;;;;;;;;;;;13.10;99.90;;;;;;5061765;28;19972;-71
2022/10/28 06:22:37;;;;;;;;;;;13.00;99.90;;;;;;5045909;28;19995;-72
2022/10/28 06:25:03;;;;;;;;;;;13.00;99.90;;;;;;5063231;28;19920;-73
2022/10/28 06:27:28;;;;;;;;;;;13.00;99.90;;;;;;5042896;28;19921;-75
2022/10/28 06:29:54;;;;;;;;;;;13.00;99.90;;;;;;5045026;28;20368;-73
2022/10/28 06:32:20;;;;;;;;;;;13.00;99.90;;;;;;5061160;28;19920;-73
2022/10/28 06:34:45;;;;;;;;;;;12.90;99.90;;;;;;5043575;28;20372;-71
2022/10/28 06:37:11;;;;;;;;;;;13.00;99.90;;;;;;5062530;28;19921;-71
2022/10/28 06:39:39;;;;;;;;;;;13.00;99.90;;;;;;5059821;28;19920;-71
2022/10/28 06:42:05;;;;;;;;;;;13.00;99.90;;;;;;5066669;28;19982;-69
2022/10/28 06:44:30;;;;;;;;;;;13.00;99.90;;;;;;5043203;28;20329;-70
2022/10/28 06:46:56;;;;;;;;;;;13.00;99.90;;;;;;5042611;28;19959;-69
2022/10/28 06:49:22;;;;;;;;;;;13.00;99.90;;;;;;5059041;28;19974;-70
2022/10/28 06:51:48;;;;;;;;;;;13.00;99.90;;;;;;5056258;28;20275;-70
2022/10/28 06:54:14;;;;;;;;;;;13.10;99.90;;;;;;5039779;28;20307;-69
2022/10/28 06:56:39;;;;;;;;;;;13.10;99.90;;;;;;5061280;28;19928;-69
2022/10/28 06:59:06;;;;;;;;;;;13.10;99.90;;;;;;5041005;28;19932;-69
2022/10/28 07:01:32;;;;;;;;;;;13.10;99.90;;;;;;5062011;28;19971;-70
2022/10/28 07:03:57;;;;;;;;;;;13.10;99.90;;;;;;5045935;28;20368;-70
2022/10/28 07:06:23;;;;;;;;;;;13.20;99.90;;;;;;5044524;28;19920;-70
2022/10/28 07:08:48;;;;;;;;;;;13.20;99.90;;;;;;5043132;28;19928;-71
2022/10/28 07:11:14;;;;;;;;;;;13.20;99.90;;;;;;5065631;28;19923;-70
2022/10/28 07:13:39;;;;;;;;;;;13.30;99.90;;;;;;5047337;28;19921;-70
2022/10/28 07:16:05;;;;;;;;;;;13.30;99.90;;;;;;5061674;28;19924;-69
2022/10/28 07:18:36;;;;;;;;;;;13.40;99.90;;;;;;5062013;28;19921;-70
2022/10/28 07:21:02;;;;;;;;;;;13.40;99.90;;;;;;5045246;28;19943;-70
2022/10/28 07:23:28;;;;;;;;;;;13.40;99.90;;;;;;5043327;28;20368;-70
2022/10/28 07:25:56;;;;;;;;;;;13.50;99.90;;;;;;5058176;28;20299;-70
2022/10/28 07:28:23;;;;;;;;;;;13.50;99.90;;;;;;5044143;28;19925;-69
2022/10/28 07:30:48;;;;;;;;;;;13.50;99.90;;;;;;5042147;28;20007;-70
2022/10/28 07:33:14;;;;;;;;;;;13.60;99.90;;;;;;5062451;28;19956;-71
2022/10/28 07:35:40;;;;;;;;;;;13.60;99.90;;;;;;5044983;28;19928;-71
2022/10/28 07:38:05;;;;;;;;;;;13.70;99.90;;;;;;5044480;28;19920;-71
2022/10/28 07:40:31;;;;;;;;;;;13.80;99.90;;;;;;5060132;28;19967;-72
2022/10/28 07:42:57;;;;;;;;;;;13.80;99.90;;;;;;5063020;28;20392;-71
2022/10/28 07:45:22;;;;;;;;;;;14.00;99.90;;;;;;5062422;28;19990;-71
2022/10/28 07:47:48;;;;;;;;;;;14.10;99.90;;;;;;5063426;28;20367;-71
2022/10/28 07:50:14;;;;;;;;;;;14.20;99.90;;;;;;5061214;28;19987;-72
2022/10/28 07:52:39;;;;;;;;;;;14.30;99.90;;;;;;5047198;28;20462;-72
2022/10/28 07:55:06;;;;;;;;;;;14.30;99.90;;;;;;5048220;28;19924;-72
2022/10/28 07:57:35;;;;;;;;;;;14.60;99.90;;;;;;5046205;28;19928;-72
2022/10/28 08:00:00;;;;;;;;;;;14.90;99.90;;;;;;5066391;28;20022;-72
2022/10/28 08:02:26;;;;;;;;;;;15.20;99.90;;;;;;5047189;28;20051;-72
2022/10/28 08:04:55;;;;;;;;;;;15.70;99.90;;;;;;5047444;28;19920;-72
2022/10/28 08:07:21;;;;;;;;;;;16.20;99.90;;;;;;5065691;28;19927;-72
2022/10/28 08:09:47;;;;;;;;;;;16.80;99.90;;;;;;5078445;28;19925;-73
2022/10/28 08:12:13;;;;;;;;;;;17.20;99.90;;;;;;5049192;28;20280;-72
2022/10/28 08:14:39;;;;;;;;;;;17.50;99.90;;;;;;5063447;28;19983;-72
2022/10/28 08:17:04;;;;;;;;;;;17.90;99.90;;;;;;5064223;28;19960;-72
2022/10/28 08:19:30;;;;;;;;;;;17.90;99.90;;;;;;5064288;28;19920;-72
2022/10/28 08:21:56;;;;;;;;;;;17.90;99.90;;;;;;5064395;28;19924;-73
2022/10/28 08:24:21;;;;;;;;;;;18.10;99.90;;;;;;5046894;28;20272;-72
2022/10/28 08:26:47;;;;;;;;;;;18.30;99.90;;;;;;5063078;28;20343;-72
2022/10/28 08:29:13;;;;;;;;;;;18.20;99.90;;;;;;5048915;28;19973;-72
2022/10/28 08:31:38;;;;;;;;;;;18.20;99.90;;;;;;5064029;28;19973;-74
2022/10/28 08:34:10;;;;;;;;;;;18.20;99.90;;;;;;5066189;28;19924;-73
2022/10/28 08:36:38;;;;;;;;;;;17.90;99.90;;;;;;5045577;28;20006;-72
2022/10/28 08:39:07;;;;;;;;;;;17.70;99.90;;;;;;5047193;28;19944;-74
2022/10/28 08:41:42;;;;;;;;;;;17.50;99.90;;;;;;5063501;28;19927;-72
2022/10/28 08:44:20;;;;;;;;;;;17.20;99.90;;;;;;5067700;28;19927;-72
2022/10/28 08:46:55;;;;;;;;;;;17.00;99.90;;;;;;5066273;28;20338;-71
2022/10/28 08:49:21;;;;;;;;;;;16.90;99.90;;;;;;5068177;28;19920;-72
2022/10/28 08:51:52;;;;;;;;;;;16.80;99.90;;;;;;5046878;28;19926;-71
2022/10/28 08:54:38;;;;;;;;;;;16.80;99.90;;;;;;5047951;28;19928;-73
2022/10/28 08:57:11;;;;;;;;;;;16.70;99.90;;;;;;5050184;28;20015;-71
2022/10/28 08:59:39;;;;;;;;;;;16.50;99.90;;;;;;5044381;28;19932;-71
2022/10/28 09:02:10;;;;;;;;;;;16.40;99.90;;;;;;5065207;28;19978;-71
2022/10/28 09:04:38;;;;;;;;;;;16.30;99.90;;;;;;5062314;28;19925;-71
2022/10/28 09:07:05;;;;;;;;;;;16.30;99.90;;;;;;5050898;28;19955;-71
2022/10/28 09:09:31;;;;;;;;;;;16.40;99.90;;;;;;5045127;28;19928;-71
2022/10/28 09:11:59;;;;;;;;;;;16.30;99.90;;;;;;5065326;28;20276;-71
2022/10/28 09:14:25;;;;;;;;;;;16.20;99.90;;;;;;5044173;28;20046;-72
2022/10/28 09:17:05;;;;;;;;;;;16.20;99.90;;;;;;5048656;28;20003;-71
2022/10/28 09:19:39;;;;;;;;;;;16.20;99.90;;;;;;5050325;28;19921;-72
2022/10/28 09:22:05;;;;;;;;;;;16.20;99.90;;;;;;5063591;28;19963;-71
2022/10/28 09:24:46;;;;;;;;;;;16.20;99.90;;;;;;5061685;28;20400;-71
2022/10/28 09:27:12;;;;;;;;;;;16.20;99.90;;;;;;5044500;28;20012;-71
2022/10/28 09:29:46;;;;;;;;;;;16.40;99.90;;;;;;5046514;28;20046;-72
2022/10/28 09:32:31;;;;;;;;;;;16.40;99.90;;;;;;5045020;28;19974;-71
2022/10/28 09:34:58;;;;;;;;;;;16.30;99.90;;;;;;5043586;28;19921;-72
2022/10/28 09:37:29;;;;;;;;;;;16.50;99.90;;;;;;5079149;28;20364;-71
2022/10/28 09:40:04;;;;;;;;;;;16.50;99.90;;;;;;5064917;28;19920;-72
2022/10/28 09:42:39;;;;;;;;;;;16.50;99.90;;;;;;5060492;28;20023;-71
2022/10/28 09:45:10;;;;;;;;;;;16.60;99.90;;;;;;5061759;28;20394;-71
2022/10/28 09:47:39;;;;;;;;;;;16.60;99.90;;;;;;5063977;28;20392;-71
2022/10/28 09:50:11;;;;;;;;;;;16.70;99.90;;;;;;5046733;28;20015;-72
2022/10/28 09:52:41;;;;;;;;;;;16.80;99.90;;;;;;5049224;28;19931;-71
2022/10/28 09:55:14;;;;;;;;;;;16.80;99.90;;;;;;5043940;28;19927;-72
2022/10/28 09:57:40;;;;;;;;;;;17.00;99.90;;;;;;5063083;28;19974;-72
2022/10/28 10:00:06;;;;;;;;;;;17.30;99.90;;;;;;5065643;28;19928;-72
2022/10/28 10:02:34;;;;;;;;;;;18.10;99.90;;;;;;5063619;28;19920;-72
2022/10/28 10:05:00;;;;;;;;;;;18.70;99.90;;;;;;5043798;28;19974;-72
2022/10/28 10:07:37;;;;;;;;;;;18.80;99.90;;;;;;5066115;28;19938;-71
2022/10/28 10:10:04;;;;;;;;;;;18.90;99.90;;;;;;5048999;28;19920;-71
2022/10/28 10:12:30;;;;;;;;;;;19.20;99.90;;;;;;5062520;28;19936;-71
2022/10/28 10:14:57;;;;;;;;;;;19.70;99.90;;;;;;5067201;28;19950;-71
2022/10/28 10:17:31;;;;;;;;;;;20.10;99.90;;;;;;5062147;28;19924;-71
2022/10/28 10:20:03;;;;;;;;;;;20.40;99.90;;;;;;5045561;28;19932;-71
2022/10/28 10:22:29;;;;;;;;;;;20.70;99.90;;;;;;5046262;28;20374;-72
2022/10/28 10:24:55;;;;;;;;;;;21.20;99.90;;;;;;5042031;28;20015;-72
2022/10/28 10:27:21;;;;;;;;;;;21.60;99.90;;;;;;5045627;28;20007;-72
2022/10/28 10:29:48;;;;;;;;;;;21.70;99.90;;;;;;5061189;28;19921;-71
2022/10/28 10:32:17;;;;;;;;;;;21.60;99.90;;;;;;5062518;28;19920;-72
2022/10/28 10:35:08;;;;;;;;;;;21.40;99.90;;;;;;5061691;28;19924;-72
2022/10/28 10:37:34;;;;;;;;;;;21.50;99.90;;;;;;5034922;28;20407;-71
2022/10/28 10:40:18;;;;;;;;;;;21.40;99.90;;;;;;5063530;28;19927;-72
2022/10/28 10:42:44;;;;;;;;;;;21.60;99.90;;;;;;5063378;28;19935;-72
2022/10/28 10:45:13;;;;;;;;;;;22.20;99.90;;;;;;5060870;28;19920;-72
2022/10/28 10:47:39;;;;;;;;;;;23.10;99.90;;;;;;5042681;28;19928;-82
2022/10/28 10:50:17;;;;;;;;;;;23.90;99.90;;;;;;5043977;28;19921;-81
2022/10/28 10:52:47;;;;;;;;;;;24.30;99.90;;;;;;5063126;28;19928;-79
2022/10/28 10:55:17;;;;;;;;;;;24.60;99.90;;;;;;5062034;28;20391;-75
2022/10/28 10:57:45;;;;;;;;;;;24.90;99.90;;;;;;5044106;28;20292;-78
2022/10/28 11:00:15;;;;;;;;;;;25.30;99.90;;;;;;5042449;28;19935;-79
2022/10/28 11:02:43;;;;;;;;;;;25.60;99.90;;;;;;5043277;28;19929;-79
2022/10/28 11:05:09;;;;;;;;;;;25.70;99.90;;;;;;5044811;28;20386;-78
2022/10/28 11:07:35;;;;;;;;;;;25.30;99.90;;;;;;5042066;28;19958;-80
2022/10/28 11:12:14;;;;;;;11.18;4.85;;;24.40;99.90;;;;;;5032788;27;20461;-77
2022/10/28 11:14:56;;;;;;;12.43;4.70;;;24.00;99.90;;;;;;5045928;28;20482;-77
2022/10/28 11:17:31;;;;;;;11.70;4.95;;;23.30;99.90;;;;;;5051580;28;20039;-77
2022/10/28 11:20:17;;;;;;;14.10;5.50;;;22.90;99.90;;;;;;5012373;28;20042;-77
2022/10/28 11:23:08;;;;;;;12.50;4.57;;;22.70;99.90;;;;;;5002543;28;20071;-77
2022/10/28 11:25:41;;;;;;;10.68;4.80;;;22.50;99.90;;;;;;5011259;28;20056;-77
2022/10/28 11:28:45;;;;;;;11.32;4.85;;;22.60;99.90;;;;;;5005016;28;20517;-77
2022/10/28 11:31:49;;;;;;;10.80;4.95;;;22.80;99.90;;;;;;5005178;28;20080;-77
2022/10/28 11:34:52;;;;;;;12.13;4.75;;;22.50;99.90;;;;;;5018382;28;20053;-76
2022/10/28 11:37:27;;;;;;;13.82;4.93;;;21.80;99.90;;;;;;5025920;27;20163;-77
2022/10/28 11:40:14;;;;;;;9.35;4.90;;;21.50;99.90;;;;;;5004634;28;20432;-76
2022/10/28 11:43:01;;;;;;;10.63;4.80;;;21.30;99.90;;;;;;4999493;28;20046;-76
2022/10/28 11:45:47;;;;;;;9.52;4.55;;;21.30;99.90;;;;;;5002591;28;20057;-76
2022/10/28 11:48:42;;;;;;;13.13;5.13;;;21.10;99.90;;;;;;5006645;28;20054;-75
2022/10/28 11:51:37;;;;;;;13.13;5.03;;;21.00;99.90;;;;;;5044880;28;20049;-75
2022/10/28 11:54:28;;;;;;;11.18;5.30;;;20.90;99.90;;;;;;5003406;28;20046;-74
2022/10/28 11:57:08;;;;;;;15.98;9.05;;;20.60;99.90;;;;;;5027030;28;20058;-75
2022/10/28 12:00:19;;;;;;;9.77;4.95;;;20.40;99.90;;;;;;5004042;28;20046;-75
2022/10/28 12:03:13;;;;;;;14.98;4.93;;;20.10;99.90;;;;;;5000746;28;20061;-75
2022/10/28 12:06:24;;;;;;;13.82;5.20;;;20.10;99.90;;;;;;5002905;28;20034;-75
2022/10/28 12:09:48;;;;;;;18.25;5.07;;;20.00;99.90;;;;;;5001472;28;20057;-75
2022/10/28 12:12:23;;;;;;;14.30;5.38;;;19.90;99.90;;;;;;5044372;28;20066;-75
2022/10/28 12:15:36;;;;;;;14.57;5.03;;;19.80;99.90;;;;;;5004740;28;20042;-75
2022/10/28 12:18:34;;;;;;;14.00;4.78;;;19.90;99.90;;;;;;5013153;28;20528;-76
2022/10/28 12:21:13;;;;;;;13.05;4.85;;;20.20;99.90;;;;;;5044696;28;20052;-75
2022/10/28 12:23:40;;;;;;;11.98;4.63;;;20.40;99.90;;;;;;4986247;28;20518;-75
2022/10/28 12:26:09;;;;;;;11.48;4.85;;;20.70;99.90;;;;;;4990753;28;20038;-74
2022/10/28 12:29:02;;;;;;;12.82;5.05;;;20.60;99.90;;;;;;4986449;28;20050;-74
2022/10/28 12:31:31;;;;;;;10.40;4.97;;;20.50;99.90;;;;;;4988916;28;20547;-75
2022/10/28 12:34:00;;;;;;;13.43;5.25;;;20.50;99.90;;;;;;4992421;28;20054;-75
2022/10/28 12:36:51;;;;;;;9.27;4.63;;;20.40;99.90;;;;;;4993143;28;20038;-75
2022/10/28 12:39:38;;;;;;;16.27;5.47;;;20.40;99.90;;;;;;4993540;28;20045;-74
2022/10/28 12:42:16;;;;;;;13.27;5.50;;;20.30;99.90;;;;;;5010891;28;20046;-74
2022/10/28 12:44:43;;;;;;;11.07;4.93;;;20.40;99.90;;;;;;4994301;28;20042;-76
2022/10/28 12:47:41;;;;;;;13.15;4.80;;;20.50;99.90;;;;;;4990421;28;20066;-75
2022/10/28 12:50:12;;;;;;;16.17;5.70;;;20.60;99.90;;;;;;4990913;28;20042;-75
2022/10/28 12:53:01;;;;;;;16.20;5.82;;;20.50;99.90;;;;;;4990315;28;20050;-77
2022/10/28 12:55:45;;;;;;;15.82;5.80;;;20.20;99.90;;;;;;4991421;28;20085;-76
2022/10/28 12:58:23;;;;;;;14.90;5.68;;;20.20;99.90;;;;;;4987348;28;20087;-75
2022/10/28 13:01:09;;;;;;;12.98;5.05;;;20.10;99.90;;;;;;4991722;28;20038;-75
2022/10/28 13:03:35;;;;;;;18.13;5.70;;;19.80;99.90;;;;;;4986923;28;20042;-77
2022/10/28 13:06:15;;;;;;;14.13;5.45;;;19.70;99.90;;;;;;4989174;28;20034;-76
2022/10/28 13:09:20;;;;;;;10.63;5.72;;;19.70;99.90;;;;;;4993187;28;20034;-76
2022/10/28 13:12:05;;;;;;;12.30;5.82;;;19.80;99.90;;;;;;4989594;28;20551;-76
2022/10/28 13:15:10;;;;;;;14.20;6.13;;;19.70;99.90;;;;;;4989510;28;20042;-75
2022/10/28 13:18:14;;;;;;;12.05;5.35;;;19.60;99.90;;;;;;4987988;28;20622;-74
2022/10/28 13:21:10;;;;;;;17.90;5.90;;;19.60;99.90;;;;;;5012478;28;20046;-74
2022/10/28 13:23:53;;;;;;;15.07;5.40;;;19.40;99.90;;;;;;4987038;28;20415;-75
2022/10/28 13:26:26;;;;;;;11.73;5.78;;;19.20;99.90;;;;;;4990720;28;20627;-76
2022/10/28 13:28:55;;;;;;;14.85;5.55;;;19.30;99.90;;;;;;4989318;28;20490;-75
2022/10/28 13:31:20;;;;;;;14.77;5.28;;;19.30;99.90;;;;;;4990464;28;20490;-73
2022/10/28 13:33:51;;;;;;;14.50;6.07;;;19.20;99.90;;;;;;4992483;28;20050;-74
2022/10/28 13:36:28;;;;;;;14.55;6.45;;;19.20;99.90;;;;;;4993190;28;20092;-71
2022/10/28 13:39:04;;;;;;;14.20;5.50;;;19.10;99.90;;;;;;5010783;28;20046;-72
2022/10/28 13:41:38;;;;;;;14.27;6.05;;;19.00;99.90;;;;;;5010726;28;20039;-74
2022/10/28 13:44:15;;;;;;;11.05;6.20;;;18.90;99.90;;;;;;4988424;28;20140;-78
2022/10/28 13:47:02;;;;;;;17.65;5.78;;;18.70;99.90;;;;;;4993703;28;20045;-74
2022/10/28 13:49:28;;;;;;;;;;;18.70;99.90;;;;;;4991286;28;20046;-76
2022/10/28 13:52:03;;;;;;;13.98;5.95;;;18.60;99.90;;;;;;4995188;28;20373;-75
2022/10/28 13:54:55;;;;;;;16.17;6.75;;;18.60;99.90;;;;;;4989830;28;20043;-75
2022/10/28 13:57:45;;;;;;;15.32;7.03;;;18.50;99.90;;;;;;4985334;28;20042;-77
2022/10/28 14:00:17;;;;;;;11.77;5.80;;;18.50;99.90;;;;;;4987937;28;20056;-78
2022/10/28 14:02:53;;;;;;;11.10;6.47;;;18.60;99.90;;;;;;5018200;28;20038;-79
2022/10/28 14:05:44;;;;;;;14.02;6.70;;;18.50;99.90;;;;;;4989149;28;20099;-73
2022/10/28 14:08:28;;;;;;;13.43;6.72;;;18.40;99.90;;;;;;4986917;28;20564;-69
2022/10/28 14:11:10;;;;;;;14.85;6.07;;;18.40;99.90;;;;;;5010304;28;20506;-70
2022/10/28 14:13:54;;;;;;;14.13;6.55;;;18.40;99.90;;;;;;5013092;28;20065;-74
2022/10/28 14:16:30;;;;;;;12.85;6.30;;;18.40;99.90;;;;;;4986311;28;20046;-74
2022/10/28 14:19:01;;;;;;;13.02;6.63;;;18.30;99.90;;;;;;4990636;28;20080;-74
2022/10/28 14:21:45;;;;;;;14.00;6.22;;;18.30;99.90;;;;;;4989192;28;20034;-71